createdAt,value
2022-09-30T00:01:57.150Z,99570.38
2022-09-30T00:04:25.843Z,99560.34
2022-09-30T00:06:54.930Z,99571.34
2022-09-30T00:09:23.737Z,99574.13
2022-09-30T00:11:54.299Z,99578.88
2022-09-30T00:14:25.131Z,99580.31
2022-09-30T00:16:53.713Z,99569.22
2022-09-30T00:19:23.398Z,99582.50
2022-09-30T00:21:52.103Z,99581.47
2022-09-30T00:24:21.808Z,99584.03
2022-09-30T00:26:50.595Z,99575.25
2022-09-30T00:29:19.832Z,99578.59
2022-09-30T00:31:48.614Z,99572.75
2022-09-30T00:34:20.131Z,99561.38
2022-09-30T00:36:54.657Z,99581.47
2022-09-30T00:39:29.892Z,99583.16
2022-09-30T00:42:04.113Z,99583.63
2022-09-30T00:44:52.054Z,99577.63
2022-09-30T00:47:52.583Z,99587.47
2022-09-30T00:50:46.358Z,99591.34
2022-09-30T00:53:42.071Z,99581.00
2022-09-30T00:56:25.700Z,99585.81
2022-09-30T00:59:05.647Z,99589.94
2022-09-30T01:01:38.993Z,99582.38
2022-09-30T01:04:17.169Z,99585.38
2022-09-30T01:06:46.153Z,99584.56
2022-09-30T01:09:15.133Z,99587.06
2022-09-30T01:11:44.633Z,99591.38
2022-09-30T01:14:23.108Z,99586.97
2022-09-30T01:17:34.628Z,99587.94
2022-09-30T01:20:36.196Z,99594.31
2022-09-30T01:23:46.207Z,99595.47
2022-09-30T01:26:57.808Z,99593.66
2022-09-30T01:29:54.375Z,99578.81
2022-09-30T01:33:18.293Z,99605.84
2022-09-30T01:36:02.632Z,99600.84
2022-09-30T01:38:52.067Z,99606.38
2022-09-30T01:41:40.815Z,99590.00
2022-09-30T01:44:38.083Z,99603.63
2022-09-30T01:47:32.024Z,99598.63
2022-09-30T01:50:12.551Z,99600.41
2022-09-30T01:53:05.484Z,99619.53
2022-09-30T01:55:50.899Z,99621.56
2022-09-30T01:58:48.020Z,99626.44
2022-09-30T02:01:35.255Z,99626.53
2022-09-30T02:04:14.845Z,99643.16
2022-09-30T02:06:50.304Z,99646.41
2022-09-30T02:09:58.618Z,99645.03
2022-09-30T02:12:33.145Z,99629.63
2022-09-30T02:15:12.577Z,99645.88
2022-09-30T02:17:51.200Z,99647.00
2022-09-30T02:20:31.067Z,99666.13
2022-09-30T02:23:29.143Z,99665.44
2022-09-30T02:26:10.094Z,99667.34
2022-09-30T02:28:45.647Z,99650.72
2022-09-30T02:31:18.424Z,99668.88
2022-09-30T02:34:28.572Z,99665.28
2022-09-30T02:37:34.737Z,99669.13
2022-09-30T02:40:11.102Z,99664.94
2022-09-30T02:42:45.823Z,99645.66
2022-09-30T02:45:21.368Z,99666.13
2022-09-30T02:48:18.827Z,99666.28
2022-09-30T02:51:04.441Z,99663.91
2022-09-30T02:53:54.288Z,99666.56
2022-09-30T02:56:38.949Z,99656.25
2022-09-30T02:59:07.734Z,99652.13
2022-09-30T03:01:42.516Z,99663.03
2022-09-30T03:04:15.961Z,99664.00
2022-09-30T03:06:46.078Z,99670.28
2022-09-30T03:09:15.707Z,99639.63
2022-09-30T03:11:45.617Z,99650.72
2022-09-30T03:14:40.082Z,99650.72
2022-09-30T03:18:11.520Z,99653.09
2022-09-30T03:21:18.287Z,99628.78
2022-09-30T03:24:22.496Z,99652.41
2022-09-30T03:27:15.800Z,99654.22
2022-09-30T03:29:48.191Z,99664.03
2022-09-30T03:32:46.001Z,99681.69
2022-09-30T03:36:07.292Z,99675.94
2022-09-30T03:39:00.656Z,99682.63
2022-09-30T03:41:34.740Z,99683.59
2022-09-30T03:44:11.349Z,99677.47
2022-09-30T03:47:01.478Z,99673.16
2022-09-30T03:49:37.635Z,99681.28
2022-09-30T03:52:09.304Z,99691.88
2022-09-30T03:54:51.015Z,99674.69
2022-09-30T03:57:19.167Z,99690.56
2022-09-30T03:59:47.463Z,99697.13
2022-09-30T04:02:15.441Z,99693.44
2022-09-30T04:04:43.279Z,99691.88
2022-09-30T04:07:13.273Z,99696.00
2022-09-30T04:09:41.470Z,99683.22
2022-09-30T04:12:10.868Z,99680.63
2022-09-30T04:14:39.934Z,99700.06
2022-09-30T04:17:10.250Z,99693.13
2022-09-30T04:19:40.756Z,99689.09
2022-09-30T04:22:10.109Z,99716.69
2022-09-30T04:24:39.475Z,99708.91
2022-09-30T04:27:07.467Z,99706.56
2022-09-30T04:29:39.147Z,99714.28
2022-09-30T04:32:08.085Z,99718.03
2022-09-30T04:34:37.924Z,99705.47
2022-09-30T04:37:10.611Z,99716.50
2022-09-30T04:39:39.441Z,99733.28
2022-09-30T04:42:08.420Z,99726.38
2022-09-30T04:44:37.100Z,99724.16
2022-09-30T04:47:07.200Z,99728.38
2022-09-30T04:49:35.672Z,99718.81
2022-09-30T04:52:03.545Z,99733.91
2022-09-30T04:54:31.556Z,99737.44
2022-09-30T04:56:59.681Z,99728.91
2022-09-30T04:59:28.764Z,99720.28
2022-09-30T05:01:56.778Z,99741.41
2022-09-30T05:04:25.361Z,99741.56
2022-09-30T05:06:53.442Z,99748.53
2022-09-30T05:09:21.991Z,99742.66
2022-09-30T05:11:49.994Z,99741.81
2022-09-30T05:14:18.573Z,99732.44
2022-09-30T05:16:47.103Z,99751.63
2022-09-30T05:19:15.386Z,99749.13
2022-09-30T05:21:44.927Z,99737.94
2022-09-30T05:24:13.527Z,99755.75
2022-09-30T05:26:41.850Z,99752.81
2022-09-30T05:29:11.841Z,99753.94
2022-09-30T05:31:39.905Z,99758.41
2022-09-30T05:34:08.826Z,99746.56
2022-09-30T05:36:37.017Z,99761.38
2022-09-30T05:39:06.672Z,99763.91
2022-09-30T05:41:36.678Z,99763.28
2022-09-30T05:44:06.093Z,99781.72
2022-09-30T05:46:35.579Z,99776.47
2022-09-30T05:49:04.932Z,99779.91
2022-09-30T05:51:33.111Z,99762.91
2022-09-30T05:54:02.058Z,99774.19
2022-09-30T05:56:31.522Z,99797.72
2022-09-30T05:59:01.417Z,99796.88
2022-09-30T06:01:30.463Z,99809.88
2022-09-30T06:03:58.846Z,99807.06
2022-09-30T06:06:27.610Z,99813.06
2022-09-30T06:08:57.516Z,99815.84
2022-09-30T06:11:25.660Z,99821.19
2022-09-30T06:13:57.045Z,99815.69
2022-09-30T06:16:25.559Z,99816.16
2022-09-30T06:18:54.464Z,99840.38
2022-09-30T06:21:26.632Z,99830.22
2022-09-30T06:23:56.380Z,99833.81
2022-09-30T06:26:25.770Z,99859.78
2022-09-30T06:28:57.085Z,99853.50
2022-09-30T06:31:26.488Z,99862.13
2022-09-30T06:33:57.404Z,99868.00
2022-09-30T06:36:25.691Z,99883.72
2022-09-30T06:38:56.110Z,99889.75
2022-09-30T06:41:27.230Z,99883.56
2022-09-30T06:44:05.557Z,99884.41
2022-09-30T06:46:40.527Z,99885.94
2022-09-30T06:49:20.020Z,99874.50
2022-09-30T06:51:48.048Z,99875.19
2022-09-30T06:54:16.657Z,99870.88
2022-09-30T06:56:46.746Z,99873.84
2022-09-30T06:59:18.163Z,99883.53
2022-09-30T07:01:46.948Z,99880.00
2022-09-30T07:04:15.435Z,99867.56
2022-09-30T07:06:43.922Z,99862.16
2022-09-30T07:09:13.866Z,99868.81
2022-09-30T07:11:42.423Z,99873.72
2022-09-30T07:14:10.704Z,99865.19
2022-09-30T07:16:39.238Z,99874.31
2022-09-30T07:19:09.383Z,99884.84
2022-09-30T07:21:39.134Z,99863.97
2022-09-30T07:24:08.025Z,99879.00
2022-09-30T07:26:36.977Z,99884.94
2022-09-30T07:29:07.521Z,99885.91
2022-09-30T07:31:56.767Z,99889.94
2022-09-30T07:34:45.901Z,99906.53
2022-09-30T07:37:22.956Z,99905.47
2022-09-30T07:40:00.498Z,99893.16
2022-09-30T07:42:28.613Z,99895.47
2022-09-30T07:44:57.003Z,99895.03
2022-09-30T07:47:31.652Z,99903.75
2022-09-30T07:50:04.352Z,99913.81
2022-09-30T07:52:32.531Z,99902.78
2022-09-30T07:55:00.797Z,99920.84
2022-09-30T07:57:29.883Z,99924.25
2022-09-30T07:59:58.107Z,99928.22
2022-09-30T08:02:26.358Z,99924.88
2022-09-30T08:04:54.613Z,99930.31
2022-09-30T08:07:23.612Z,99935.31
2022-09-30T08:09:55.802Z,99943.84
2022-09-30T08:12:28.331Z,99925.19
2022-09-30T08:14:59.370Z,99935.31
2022-09-30T08:17:28.947Z,99921.06
2022-09-30T08:19:57.614Z,99940.66
2022-09-30T08:22:26.796Z,99949.59
2022-09-30T08:24:56.460Z,99937.81
2022-09-30T08:27:25.607Z,99943.66
2022-09-30T08:29:56.137Z,99959.22
2022-09-30T08:32:29.711Z,99958.69
2022-09-30T08:34:58.755Z,99965.84
2022-09-30T08:37:26.768Z,99961.09
2022-09-30T08:39:55.077Z,99966.91
2022-09-30T08:42:54.229Z,99960.47
2022-09-30T08:46:29.457Z,99976.97
2022-09-30T08:49:23.260Z,99986.72
2022-09-30T08:51:53.823Z,99996.88
2022-09-30T08:54:28.234Z,99980.66
2022-09-30T08:56:59.082Z,99997.78
2022-09-30T09:00:15.948Z,99993.09
2022-09-30T09:03:03.695Z,99993.84
2022-09-30T09:06:02.097Z,99999.50
2022-09-30T09:09:25.518Z,100012.03
2022-09-30T09:12:27.025Z,99999.31
2022-09-30T09:15:43.763Z,100002.56
2022-09-30T09:18:57.788Z,100007.47
2022-09-30T09:21:43.335Z,99980.53
2022-09-30T09:24:30.472Z,99992.78
2022-09-30T09:27:36.786Z,99998.50
2022-09-30T09:30:24.978Z,99984.91
2022-09-30T09:33:01.552Z,99975.41
2022-09-30T09:36:20.627Z,99989.63
2022-09-30T09:40:04.359Z,99986.34
2022-09-30T09:42:45.591Z,99988.63
2022-09-30T09:46:00.816Z,99985.50
2022-09-30T09:48:31.224Z,99989.16
2022-09-30T09:51:34.575Z,99978.00
2022-09-30T09:54:10.268Z,99973.47
2022-09-30T09:56:41.806Z,99964.00
2022-09-30T09:59:58.649Z,99988.53
2022-09-30T10:02:33.538Z,99984.88
2022-09-30T10:05:05.754Z,99979.72
2022-09-30T10:07:36.251Z,99976.09
2022-09-30T10:10:23.476Z,99988.44
2022-09-30T10:12:53.086Z,99979.16
2022-09-30T10:15:22.670Z,99981.47
2022-09-30T10:17:58.625Z,99972.63
2022-09-30T10:20:36.498Z,99991.22
2022-09-30T10:23:28.456Z,99975.00
2022-09-30T10:26:08.097Z,99991.66
2022-09-30T10:29:04.955Z,99992.22
2022-09-30T10:31:46.613Z,99983.53
2022-09-30T10:34:36.567Z,99995.88
2022-09-30T10:37:17.957Z,99996.84
2022-09-30T10:40:02.942Z,99985.31
2022-09-30T10:42:35.098Z,99988.38
2022-09-30T10:45:20.077Z,99990.84
2022-09-30T10:47:53.866Z,99980.19
2022-09-30T10:50:27.248Z,99985.56
2022-09-30T10:53:05.957Z,99994.94
2022-09-30T10:55:46.040Z,99987.72
2022-09-30T10:58:47.655Z,99991.63
2022-09-30T11:01:57.455Z,99992.69
2022-09-30T11:04:45.184Z,99974.63
2022-09-30T11:07:45.184Z,99985.16
2022-09-30T11:10:48.753Z,99989.50
2022-09-30T11:14:02.839Z,99987.78
2022-09-30T11:16:56.348Z,99989.06
2022-09-30T11:19:46.253Z,99984.69
2022-09-30T11:22:38.667Z,99987.25
2022-09-30T11:25:16.978Z,99982.41
2022-09-30T11:28:13.447Z,99982.75
2022-09-30T11:31:33.480Z,99984.34
2022-09-30T11:34:31.617Z,99979.81
2022-09-30T11:37:13.788Z,99993.47
2022-09-30T11:40:13.595Z,99993.94
2022-09-30T11:43:16.784Z,100001.16
2022-09-30T11:45:59.760Z,99997.56
2022-09-30T11:48:44.270Z,99993.94
2022-09-30T11:51:37.243Z,99992.09
2022-09-30T11:54:34.062Z,99985.41
2022-09-30T11:57:20.454Z,99983.25
2022-09-30T11:59:59.894Z,99980.78
2022-09-30T12:02:51.576Z,99976.03
2022-09-30T12:05:36.178Z,99979.13
2022-09-30T12:08:17.999Z,99967.28
2022-09-30T12:10:55.254Z,99971.78
2022-09-30T12:13:38.785Z,99965.47
2022-09-30T12:16:21.617Z,99973.28
2022-09-30T12:19:05.971Z,99969.63
2022-09-30T12:22:16.357Z,99977.59
2022-09-30T12:24:48.165Z,99962.97
2022-09-30T12:27:45.548Z,99983.22
2022-09-30T12:30:21.975Z,99979.53
2022-09-30T12:33:22.307Z,99984.47
2022-09-30T12:36:27.440Z,99993.94
2022-09-30T12:39:13.953Z,99980.47
2022-09-30T12:41:48.444Z,99993.50
2022-09-30T12:45:14.585Z,99997.91
2022-09-30T12:47:56.641Z,99989.59
2022-09-30T12:50:34.797Z,99985.81
2022-09-30T12:53:32.698Z,99981.59
2022-09-30T12:56:15.583Z,99978.91
2022-09-30T12:58:50.361Z,99966.75
2022-09-30T13:01:28.272Z,99981.97
2022-09-30T13:04:01.749Z,99993.28
2022-09-30T13:06:48.425Z,99993.78
2022-09-30T13:09:37.412Z,99984.00
2022-09-30T13:12:05.709Z,99987.41
2022-09-30T13:14:44.050Z,99982.31
2022-09-30T13:17:12.605Z,99985.00
2022-09-30T13:19:52.232Z,99983.69
2022-09-30T13:22:20.386Z,99989.19
2022-09-30T13:25:00.907Z,99993.38
2022-09-30T13:28:01.324Z,99993.47
2022-09-30T13:30:34.642Z,99996.44
2022-09-30T13:34:06.702Z,100000.06
2022-09-30T13:36:57.978Z,99987.59
2022-09-30T13:39:44.086Z,99996.31
2022-09-30T13:42:21.035Z,99999.72
2022-09-30T13:45:31.963Z,99993.31
2022-09-30T13:48:11.194Z,100004.09
2022-09-30T13:50:49.210Z,99998.97
2022-09-30T13:53:46.245Z,100002.84
2022-09-30T13:56:37.890Z,100003.41
2022-09-30T14:00:00.227Z,99996.94
2022-09-30T14:03:15.066Z,100001.19
2022-09-30T14:06:16.144Z,99988.69
2022-09-30T14:09:11.709Z,100001.00
2022-09-30T14:12:15.929Z,99999.56
2022-09-30T14:15:18.936Z,99996.81
2022-09-30T14:18:19.730Z,99995.94
2022-09-30T14:21:10.982Z,99974.47
2022-09-30T14:23:39.834Z,99998.03
2022-09-30T14:26:19.773Z,99992.44
2022-09-30T14:29:07.475Z,99983.16
2022-09-30T14:31:47.360Z,99986.81
2022-09-30T14:34:19.121Z,99966.09
2022-09-30T14:36:51.408Z,99980.81
2022-09-30T14:39:28.400Z,99981.13
2022-09-30T14:42:02.271Z,99973.31
2022-09-30T14:44:36.758Z,99972.00
2022-09-30T14:47:05.546Z,99966.09
2022-09-30T14:49:36.547Z,99964.50
2022-09-30T14:52:05.270Z,99971.72
2022-09-30T14:54:34.457Z,99973.34
2022-09-30T14:57:04.213Z,99986.69
2022-09-30T14:59:34.824Z,99984.97
2022-09-30T15:02:13.516Z,99990.50
2022-09-30T15:05:00.446Z,99984.25
